HIJ weather

Hiroshima Airport
Hiroshima, Hiroshima Prefecture, Japan

Public forecast

Using degrees Celsius for public forecast. Weather courtesy of forecast.io.

Current aviation weather report (METAR) for Hiroshima Airport

Retrieved 2019/10/15 07:00 UTC (21 minutes ago):

RJOA 150700Z 02007G20KT 350V080 9999 SCT030 BKN/// 17/05 Q1024

Aviation forecast (TAF) for Hiroshima Airport

Retrieved 2019/10/15 06:30 UTC (51 minutes ago):

TAF RJOA 150506Z 1506/1612 02010KT 9999 FEW030 BECMG 1600/1603 11005KT